Time;durP1;ratioP1;P1;durP2;ratioP2;P2;SDS_P1;SDS_P2;PMS_P1;PMS_P2;Temp;Humidity;BMP_temperature;BMP_pressure;BME280_temperature;BME280_humidity;BME280_pressure;Samples;Min_cycle;Max_cycle;Signal;HPM_P1;HPM_P2
2022/07/25 00:00:29;;;;;;;4.03;2.63;;;23.50;99.90;;;;;;5129783;27;20087;-71
2022/07/25 00:02:55;;;;;;;4.70;2.70;;;23.40;99.90;;;;;;5095812;28;20082;-71
2022/07/25 00:05:21;;;;;;;6.57;3.00;;;23.40;99.90;;;;;;5095755;28;20040;-71
2022/07/25 00:07:47;;;;;;;5.43;3.00;;;23.40;99.90;;;;;;5095725;28;20051;-71
2022/07/25 00:10:12;;;;;;;4.83;2.90;;;23.40;99.90;;;;;;5094431;28;20086;-71
2022/07/25 00:12:38;;;;;;;4.30;2.80;;;23.40;99.90;;;;;;5095324;28;20127;-71
2022/07/25 00:15:05;;;;;;;3.87;2.50;;;23.40;99.90;;;;;;5095909;28;20052;-70
2022/07/25 00:17:31;;;;;;;4.77;2.80;;;23.40;99.90;;;;;;5111544;28;20071;-71
2022/07/25 00:19:57;;;;;;;7.23;3.10;;;23.40;99.90;;;;;;5095248;28;20040;-70
2022/07/25 00:22:22;;;;;;;4.93;3.27;;;23.40;99.90;;;;;;5093543;28;20047;-71
2022/07/25 00:24:48;;;;;;;4.67;3.00;;;23.40;99.90;;;;;;5095434;28;20048;-71
2022/07/25 00:27:14;;;;;;;6.80;3.23;;;23.40;99.90;;;;;;5095329;28;20065;-71
2022/07/25 00:29:39;;;;;;;6.30;3.10;;;23.40;99.90;;;;;;5095280;28;20178;-71
2022/07/25 00:32:05;;;;;;;6.37;3.07;;;23.40;99.90;;;;;;5093979;28;20393;-70
2022/07/25 00:34:31;;;;;;;7.00;2.83;;;23.40;99.90;;;;;;5095166;28;20052;-70
2022/07/25 00:36:57;;;;;;;4.53;2.80;;;23.30;99.90;;;;;;5095161;28;20044;-71
2022/07/25 00:39:23;;;;;;;5.47;2.80;;;23.30;99.90;;;;;;5095123;28;20097;-71
2022/07/25 00:41:49;;;;;;;5.13;3.10;;;23.30;99.90;;;;;;5095098;28;20365;-71
2022/07/25 00:44:44;;;;;;;7.47;3.20;;;23.30;99.90;;;;;;5095033;28;20050;-71
2022/07/25 00:47:09;;;;;;;5.68;3.00;;;23.30;99.90;;;;;;5090305;28;20060;-71
2022/07/25 00:49:35;;;;;;;5.93;3.23;;;23.20;99.90;;;;;;5094880;28;20047;-71
2022/07/25 00:52:01;;;;;;;4.57;3.07;;;23.20;99.90;;;;;;5095088;28;20044;-70
2022/07/25 00:54:28;;;;;;;5.30;3.37;;;23.10;99.90;;;;;;5093875;28;20051;-71
2022/07/25 00:56:54;;;;;;;4.10;3.20;;;23.10;99.90;;;;;;5095246;28;20039;-71
2022/07/25 00:59:20;;;;;;;8.00;3.53;;;23.10;99.90;;;;;;5094703;28;20494;-71
2022/07/25 01:01:46;;;;;;;4.90;3.13;;;23.00;99.90;;;;;;5094510;28;20051;-71
2022/07/25 01:04:13;;;;;;;5.50;3.80;;;23.00;99.90;;;;;;5093375;28;20047;-71
2022/07/25 01:06:39;;;;;;;5.67;3.73;;;23.00;99.90;;;;;;5094571;28;20083;-71
2022/07/25 01:09:05;;;;;;;7.27;4.13;;;22.90;99.90;;;;;;5094569;28;20055;-71
2022/07/25 01:11:30;;;;;;;6.67;3.40;;;22.90;99.90;;;;;;5094440;28;20488;-70
2022/07/25 01:13:56;;;;;;;5.57;3.57;;;22.90;99.90;;;;;;5094995;28;20372;-71
2022/07/25 01:16:22;;;;;;;4.77;3.70;;;22.80;99.90;;;;;;5094439;28;20100;-71
2022/07/25 01:18:47;;;;;;;5.77;3.37;;;22.80;99.90;;;;;;5094110;28;20422;-71
2022/07/25 01:21:13;;;;;;;5.00;3.33;;;22.80;99.90;;;;;;5077257;28;20055;-70
2022/07/25 01:23:40;;;;;;;4.80;3.60;;;22.80;99.90;;;;;;5094316;28;20048;-71
2022/07/25 01:26:05;;;;;;;5.30;3.40;;;22.80;99.90;;;;;;5094253;28;20051;-71
2022/07/25 01:28:31;;;;;;;4.97;3.40;;;22.70;99.90;;;;;;5093145;28;20048;-70
2022/07/25 01:30:57;;;;;;;5.73;3.30;;;22.70;99.90;;;;;;5094177;28;20464;-70
2022/07/25 01:33:22;;;;;;;5.50;3.50;;;22.60;99.90;;;;;;5093973;28;20084;-70
2022/07/25 01:35:49;;;;;;;5.43;3.27;;;22.60;99.90;;;;;;5093774;28;20040;-71
2022/07/25 01:38:15;;;;;;;5.07;3.70;;;22.50;99.90;;;;;;5093114;28;20083;-71
2022/07/25 01:40:42;;;;;;;6.17;3.67;;;22.50;99.90;;;;;;5093995;28;20097;-71
2022/07/25 01:43:08;;;;;;;5.80;3.67;;;22.50;99.90;;;;;;5093984;28;20094;-71
2022/07/25 01:45:34;;;;;;;8.10;3.77;;;22.50;99.90;;;;;;5093733;28;20083;-71
2022/07/25 01:48:00;;;;;;;6.80;3.70;;;22.40;99.90;;;;;;5093933;28;20052;-70
2022/07/25 01:50:25;;;;;;;5.87;3.50;;;22.40;99.90;;;;;;5094122;28;20048;-71
2022/07/25 01:52:51;;;;;;;6.07;3.50;;;22.40;99.90;;;;;;5076228;28;20460;-70
2022/07/25 01:55:17;;;;;;;4.70;3.40;;;22.40;99.90;;;;;;5094082;28;20040;-70
2022/07/25 01:57:42;;;;;;;4.83;3.73;;;22.30;99.90;;;;;;5093748;28;20072;-70
2022/07/25 02:00:12;;;;;;;6.30;3.60;;;22.30;99.90;;;;;;5094271;28;20131;-70
2022/07/25 02:02:39;;;;;;;5.80;3.97;;;22.30;99.90;;;;;;5093646;28;20076;-70
2022/07/25 02:05:05;;;;;;;6.93;3.73;;;22.30;99.90;;;;;;5093765;28;20403;-70
2022/07/25 02:07:31;;;;;;;10.00;4.40;;;22.30;99.90;;;;;;5092632;28;20051;-70
2022/07/25 02:09:57;;;;;;;8.67;3.80;;;22.30;99.90;;;;;;5093635;28;20040;-71
2022/07/25 02:12:22;;;;;;;5.70;3.50;;;22.20;99.90;;;;;;5093172;28;20066;-70
2022/07/25 02:14:48;;;;;;;4.57;3.47;;;22.20;99.90;;;;;;5093549;28;20062;-70
2022/07/25 02:17:14;;;;;;;5.20;3.77;;;22.20;99.90;;;;;;5092926;28;20456;-70
2022/07/25 02:19:40;;;;;;;4.93;3.57;;;22.20;99.90;;;;;;5093515;28;20074;-70
2022/07/25 02:22:05;;;;;;;5.63;3.73;;;22.20;99.90;;;;;;5093744;28;20484;-70
2022/07/25 02:24:31;;;;;;;5.37;3.80;;;22.20;99.90;;;;;;5093956;28;20468;-70
2022/07/25 02:26:57;;;;;;;6.03;3.87;;;22.20;99.90;;;;;;5092945;28;20040;-70
2022/07/25 02:29:23;;;;;;;9.87;4.57;;;22.10;99.90;;;;;;5093427;28;20079;-70
2022/07/25 02:31:50;;;;;;;5.93;4.07;;;22.10;99.90;;;;;;5093337;28;20041;-70
2022/07/25 02:34:16;;;;;;;9.30;4.70;;;22.10;99.90;;;;;;5093364;28;20130;-70
2022/07/25 02:36:42;;;;;;;6.97;4.50;;;22.00;99.90;;;;;;5094078;28;20048;-70
2022/07/25 02:39:07;;;;;;;7.77;4.40;;;22.00;99.90;;;;;;5093367;28;20171;-70
2022/07/25 02:41:33;;;;;;;7.30;4.70;;;22.00;99.90;;;;;;5093264;28;20043;-70
2022/07/25 02:43:59;;;;;;;8.27;4.53;;;22.00;99.90;;;;;;5094136;28;20048;-70
2022/07/25 02:46:24;;;;;;;6.70;4.53;;;22.00;99.90;;;;;;5097512;28;20060;-70
2022/07/25 02:48:50;;;;;;;5.83;3.90;;;22.00;99.90;;;;;;5097247;28;20108;-70
2022/07/25 02:51:17;;;;;;;7.30;5.00;;;22.00;99.90;;;;;;5097461;28;20040;-69
2022/07/25 02:53:43;;;;;;;6.20;4.67;;;22.00;99.90;;;;;;5097422;28;20083;-70
2022/07/25 02:56:09;;;;;;;5.70;4.63;;;22.00;99.90;;;;;;5096679;28;20086;-70
2022/07/25 02:58:34;;;;;;;6.33;4.57;;;22.00;99.90;;;;;;5097117;28;20055;-70
2022/07/25 03:01:00;;;;;;;9.23;5.23;;;22.00;99.90;;;;;;5096807;28;20055;-70
2022/07/25 03:03:26;;;;;;;7.27;4.40;;;22.00;99.90;;;;;;5097015;28;20040;-70
2022/07/25 03:05:51;;;;;;;6.40;4.60;;;22.00;99.90;;;;;;5079788;28;20383;-70
2022/07/25 03:08:17;;;;;;;5.70;4.33;;;22.00;99.90;;;;;;5095757;28;20054;-70
2022/07/25 03:10:43;;;;;;;7.73;4.23;;;21.90;99.90;;;;;;5096783;28;20079;-71
2022/07/25 03:13:08;;;;;;;6.87;4.33;;;21.90;99.90;;;;;;5097083;28;20047;-70
2022/07/25 03:15:34;;;;;;;6.07;5.03;;;21.90;99.90;;;;;;5096776;28;20048;-71
2022/07/25 03:18:00;;;;;;;7.70;5.07;;;21.80;99.90;;;;;;5096748;28;20476;-70
2022/07/25 03:20:25;;;;;;;9.23;4.90;;;21.80;99.90;;;;;;5096695;28;20130;-70
2022/07/25 03:22:51;;;;;;;6.73;4.80;;;21.70;99.90;;;;;;5095654;28;20040;-70
2022/07/25 03:25:17;;;;;;;5.73;4.57;;;21.70;99.90;;;;;;5097085;28;20464;-71
2022/07/25 03:27:42;;;;;;;5.90;4.70;;;21.70;99.90;;;;;;5078558;28;20040;-71
2022/07/25 03:30:09;;;;;;;7.33;4.83;;;21.70;99.90;;;;;;5096535;28;20097;-70
2022/07/25 03:32:34;;;;;;;7.53;5.07;;;21.70;99.90;;;;;;5095145;28;20059;-71
2022/07/25 03:35:00;;;;;;;5.77;4.80;;;21.60;99.90;;;;;;5096447;28;20044;-70
2022/07/25 03:37:26;;;;;;;7.40;5.10;;;21.60;99.90;;;;;;5096173;28;20044;-70
2022/07/25 03:39:52;;;;;;;8.90;5.30;;;21.60;99.90;;;;;;5095270;28;20387;-71
2022/07/25 03:42:17;;;;;;;7.07;4.60;;;21.60;99.90;;;;;;5095535;28;20424;-70
2022/07/25 03:44:43;;;;;;;6.13;5.03;;;21.60;99.90;;;;;;5096198;28;20063;-70
2022/07/25 03:47:09;;;;;;;6.07;4.50;;;21.60;99.90;;;;;;5096614;28;20085;-70
2022/07/25 03:49:34;;;;;;;7.63;5.07;;;21.60;99.90;;;;;;5096136;28;20052;-72
2022/07/25 03:52:00;;;;;;;6.80;4.93;;;21.60;99.90;;;;;;5096516;28;20040;-70
2022/07/25 03:54:26;;;;;;;6.60;5.40;;;21.60;99.90;;;;;;5096000;28;20105;-70
2022/07/25 03:56:52;;;;;;;7.40;5.00;;;21.50;99.90;;;;;;5094865;28;20047;-70
2022/07/25 03:59:20;;;;;;;8.20;5.10;;;21.50;99.90;;;;;;5094997;28;20121;-70
2022/07/25 04:01:47;;;;;;;7.37;5.13;;;21.60;99.90;;;;;;5095845;28;20101;-70
2022/07/25 04:04:13;;;;;;;6.47;5.20;;;21.50;99.90;;;;;;5095907;28;20058;-70
2022/07/25 04:06:40;;;;;;;7.20;5.20;;;21.50;99.90;;;;;;5095803;28;20056;-71
2022/07/25 04:09:07;;;;;;;7.07;5.43;;;21.50;99.90;;;;;;5095765;28;20044;-71
2022/07/25 04:11:34;;;;;;;7.00;4.53;;;21.50;99.90;;;;;;5096128;28;20098;-70
2022/07/25 04:14:01;;;;;;;7.63;5.40;;;21.50;99.90;;;;;;5095637;28;20052;-70
2022/07/25 04:16:27;;;;;;;8.80;5.63;;;21.60;99.90;;;;;;5095914;28;20411;-70
2022/07/25 04:18:54;;;;;;;6.80;5.27;;;21.50;99.90;;;;;;5096068;28;20097;-70
2022/07/25 04:21:20;;;;;;;7.07;5.63;;;21.60;99.90;;;;;;5095487;28;20118;-70
2022/07/25 04:23:46;;;;;;;6.73;5.47;;;21.60;99.90;;;;;;5095465;28;20044;-70
2022/07/25 04:26:12;;;;;;;7.77;5.33;;;21.60;99.90;;;;;;5095377;28;20132;-70
2022/07/25 04:28:38;;;;;;;6.63;5.47;;;21.60;99.90;;;;;;5094902;28;20047;-70
2022/07/25 04:31:04;;;;;;;7.17;5.87;;;21.60;99.90;;;;;;5095221;28;20488;-70
2022/07/25 04:33:29;;;;;;;7.43;5.63;;;21.60;99.90;;;;;;5095255;28;20055;-70
2022/07/25 04:35:55;;;;;;;7.70;5.97;;;21.60;99.90;;;;;;5095239;28;20087;-70
2022/07/25 04:38:21;;;;;;;8.00;5.53;;;21.60;99.90;;;;;;5095139;28;20122;-70
2022/07/25 04:40:47;;;;;;;7.10;4.73;;;21.60;99.90;;;;;;5095115;28;20048;-71
2022/07/25 04:43:12;;;;;;;7.83;5.73;;;21.60;99.90;;;;;;5095068;28;20051;-70
2022/07/25 04:45:38;;;;;;;8.27;5.40;;;21.60;99.90;;;;;;5094832;28;20056;-70
2022/07/25 04:48:04;;;;;;;6.77;5.80;;;21.70;99.90;;;;;;5095476;28;20126;-70
2022/07/25 04:50:30;;;;;;;8.63;5.87;;;21.70;99.90;;;;;;5093974;28;20391;-70
2022/07/25 04:52:56;;;;;;;7.40;6.40;;;21.70;99.90;;;;;;5094715;28;20036;-70
2022/07/25 04:55:22;;;;;;;10.03;7.47;;;21.70;99.90;;;;;;5093845;28;20039;-70
2022/07/25 04:57:47;;;;;;;9.87;6.13;;;21.70;99.90;;;;;;5094532;28;20047;-70
2022/07/25 05:00:14;;;;;;;7.40;6.23;;;21.80;99.90;;;;;;5094696;28;20126;-70
2022/07/25 05:02:40;;;;;;;9.07;6.73;;;21.80;99.90;;;;;;5094696;28;20040;-70
2022/07/25 05:05:07;;;;;;;7.20;6.40;;;21.80;99.90;;;;;;5093736;28;20117;-70
2022/07/25 05:07:33;;;;;;;8.73;6.87;;;21.80;99.90;;;;;;5093965;28;20055;-71
2022/07/25 05:09:59;;;;;;;8.43;6.67;;;21.80;99.90;;;;;;5093413;28;20103;-70
2022/07/25 05:12:25;;;;;;;10.40;6.93;;;21.80;99.90;;;;;;5094421;28;20075;-70
2022/07/25 05:14:51;;;;;;;9.00;6.87;;;21.90;99.90;;;;;;5094488;28;20051;-70
2022/07/25 05:17:16;;;;;;;8.70;6.40;;;21.90;99.90;;;;;;5094469;28;20040;-70
2022/07/25 05:19:42;;;;;;;8.60;7.63;;;21.90;99.90;;;;;;5094373;28;20051;-70
2022/07/25 05:22:08;;;;;;;12.90;7.47;;;21.90;99.90;;;;;;5094490;28;20075;-70
2022/07/25 05:24:34;;;;;;;9.73;7.37;;;21.90;99.90;;;;;;5093973;28;20131;-70
2022/07/25 05:27:00;;;;;;;11.70;7.57;;;21.90;99.90;;;;;;5092718;28;20516;-70
2022/07/25 05:29:26;;;;;;;10.23;7.43;;;21.80;99.90;;;;;;5094725;28;20052;-70
2022/07/25 05:31:52;;;;;;;9.70;7.80;;;21.80;99.90;;;;;;5093090;28;20047;-70
2022/07/25 05:34:18;;;;;;;12.57;7.83;;;21.80;99.90;;;;;;5094934;28;20043;-70
2022/07/25 05:36:44;;;;;;;9.27;7.70;;;21.90;99.90;;;;;;5094131;28;20086;-70
2022/07/25 05:39:10;;;;;;;10.23;8.17;;;21.90;99.90;;;;;;5093994;28;20114;-70
2022/07/25 05:41:36;;;;;;;8.33;7.53;;;21.90;99.90;;;;;;5094012;28;20144;-70
2022/07/25 05:44:02;;;;;;;11.83;8.13;;;22.00;99.90;;;;;;5093988;28;20097;-70
2022/07/25 05:46:28;;;;;;;8.87;7.97;;;22.00;99.90;;;;;;5092652;28;20056;-70
2022/07/25 05:48:53;;;;;;;10.70;8.20;;;22.10;99.90;;;;;;5094475;28;20442;-70
2022/07/25 05:51:19;;;;;;;9.33;8.33;;;22.20;99.90;;;;;;5092846;28;20043;-70
2022/07/25 05:53:45;;;;;;;10.03;8.73;;;22.20;99.90;;;;;;5093853;28;20048;-70
2022/07/25 05:56:10;;;;;;;12.17;8.63;;;22.20;99.90;;;;;;5093090;28;20072;-71
2022/07/25 05:58:39;;;;;;;11.70;8.87;;;22.30;99.90;;;;;;5093737;28;20396;-70
2022/07/25 06:01:06;;;;;;;11.07;8.40;;;22.40;99.90;;;;;;5093709;28;20051;-70
2022/07/25 06:03:33;;;;;;;11.63;9.10;;;22.50;99.90;;;;;;5093745;28;20052;-70
2022/07/25 06:05:59;;;;;;;10.60;8.57;;;22.70;99.90;;;;;;5093623;28;20109;-71
2022/07/25 06:08:27;;;;;;;9.83;8.43;;;22.80;99.90;;;;;;5093694;28;20048;-71
2022/07/25 06:10:53;;;;;;;13.20;8.20;;;22.90;99.90;;;;;;5094052;28;20040;-73
2022/07/25 06:13:19;;;;;;;11.93;9.33;;;22.90;99.90;;;;;;5093613;28;20040;-71
2022/07/25 06:15:45;;;;;;;11.43;8.57;;;23.00;99.90;;;;;;5093573;28;20050;-70
2022/07/25 06:18:10;;;;;;;9.97;8.80;;;23.10;99.90;;;;;;5092296;28;20058;-71
2022/07/25 06:20:36;;;;;;;12.93;8.77;;;23.30;99.90;;;;;;5092247;28;20048;-71
2022/07/25 06:23:03;;;;;;;11.93;8.23;;;23.60;99.90;;;;;;5093266;28;20100;-71
2022/07/25 06:25:29;;;;;;;11.33;8.57;;;24.30;99.90;;;;;;5092308;28;20155;-71
2022/07/25 06:27:55;;;;;;;10.73;8.83;;;24.70;99.90;;;;;;5092417;28;20541;-73
2022/07/25 06:30:21;;;;;;;10.87;8.70;;;24.80;99.90;;;;;;5094183;28;20052;-71
2022/07/25 06:32:48;;;;;;;12.90;9.27;;;25.10;99.90;;;;;;5093340;28;20480;-70
2022/07/25 06:35:14;;;;;;;9.17;8.13;;;25.50;99.90;;;;;;5093337;28;20048;-70
2022/07/25 06:37:40;;;;;;;11.87;8.40;;;26.50;99.90;;;;;;5094174;28;20052;-70
2022/07/25 06:40:06;;;;;;;10.87;8.83;;;27.20;99.90;;;;;;5093824;28;20495;-71
2022/07/25 06:42:36;;;;;;;12.97;9.37;;;27.70;99.90;;;;;;5094086;28;20076;-71
2022/07/25 06:45:06;;;;;;;8.47;7.23;;;28.20;99.90;;;;;;5093525;28;20047;-71
2022/07/25 06:47:32;;;;;;;9.60;8.00;;;;;;;;;;5093656;28;20094;-71
2022/07/25 06:49:59;;;;;;;8.27;7.30;;;;;;;;;;5127133;28;20095;-71
2022/07/25 06:52:25;;;;;;;11.20;8.43;;;;;;;;;;5093145;28;20040;-70
2022/07/25 06:54:51;;;;;;;9.37;8.13;;;;;;;;;;5093689;28;20052;-70
2022/07/25 06:57:17;;;;;;;9.23;8.17;;;;;;;;;;5092190;28;20051;-70
2022/07/25 06:59:44;;;;;;;11.87;8.17;;;;;;;;;;5093350;28;20094;-70
2022/07/25 07:02:11;;;;;;;9.40;7.70;;;;;;;;;;5093622;28;20048;-71
2022/07/25 07:04:37;;;;;;;12.00;8.60;;;27.00;99.90;;;;;;5092122;28;20114;-70
2022/07/25 07:07:03;;;;;;;9.73;7.40;;;27.10;99.90;;;;;;5093822;28;20083;-71
2022/07/25 07:09:29;;;;;;;9.17;7.53;;;27.50;99.40;;;;;;5093627;28;20491;-70
2022/07/25 07:11:55;;;;;;;11.50;7.30;;;28.00;98.50;;;;;;5093022;28;20468;-71
2022/07/25 07:14:21;;;;;;;12.80;7.27;;;28.50;97.60;;;;;;5093021;28;20040;-69
2022/07/25 07:16:46;;;;;;;10.30;7.27;;;28.70;95.50;;;;;;5093034;28;20056;-71
2022/07/25 07:19:13;;;;;;;9.47;7.13;;;;;;;;;;5092934;28;20051;-71
2022/07/25 07:21:39;;;;;;;8.37;5.63;;;;;;;;;;5092941;28;20454;-71
2022/07/25 07:24:06;;;;;;;9.17;6.53;;;;;;;;;;5093425;28;20135;-71
2022/07/25 07:26:32;;;;;;;8.13;5.43;;;;;;;;;;5092875;28;20051;-72
2022/07/25 07:28:59;;;;;;;10.07;5.73;;;;;;;;;;5092149;28;20075;-72
2022/07/25 07:31:26;;;;;;;8.33;5.80;;;;;;;;;;5095843;28;20515;-72
2022/07/25 07:33:51;;;;;;;7.47;5.10;;;27.40;95.50;;;;;;5096464;28;20051;-72
2022/07/25 07:36:18;;;;;;;10.40;5.07;;;28.40;94.80;;;;;;5096405;28;20047;-72
2022/07/25 07:38:44;;;;;;;10.80;4.63;;;;;;;;;;5096405;28;20552;-71
2022/07/25 07:41:10;;;;;;;7.35;4.72;;;;;;;;;;5096354;28;20059;-72
2022/07/25 07:43:36;;;;;;;6.57;3.83;;;;;;;;;;5096270;28;20052;-72
2022/07/25 07:46:03;;;;;;;7.30;4.32;;;;;;;;;;5094987;28;20055;-72
2022/07/25 07:48:32;;;;;;;7.00;3.87;;;;;;;;;;5096183;28;20544;-72
2022/07/25 07:50:59;;;;;;;7.00;3.37;;;;;;;;;;5095872;28;20067;-72
2022/07/25 07:55:42;;;;;;;5.20;2.87;;;;;;;;;;5096610;28;20044;-72
2022/07/25 07:56:12;;;;;;;5.07;2.20;;;;;;;;;;5096018;28;20056;-72
2022/07/25 07:58:38;;;;;;;4.67;2.40;;;;;;;;;;5096033;28;20050;-72
2022/07/25 08:01:04;;;;;;;6.03;2.40;;;;;;;;;;5095993;28;20074;-72
2022/07/25 08:03:30;;;;;;;5.93;2.80;;;26.60;76.90;;;;;;5096425;28;20186;-73
2022/07/25 08:05:56;;;;;;;4.87;2.10;;;26.60;76.90;;;;;;5078583;28;20094;-72
2022/07/25 08:08:22;;;;;;;6.20;1.87;;;26.30;76.90;;;;;;5095622;28;20040;-72
2022/07/25 08:10:49;;;;;;;6.27;1.90;;;26.10;77.50;;;;;;5094610;28;20060;-72
2022/07/25 08:13:19;;;;;;;3.77;1.90;;;25.80;79.10;;;;;;5095582;28;20048;-72
2022/07/25 08:15:47;;;;;;;4.40;2.00;;;25.60;80.40;;;;;;5096432;28;20048;-71
2022/07/25 08:18:13;;;;;;;6.47;2.20;;;25.50;82.10;;;;;;5096394;28;20067;-72
2022/07/25 08:20:39;;;;;;;4.23;2.50;;;25.40;83.90;;;;;;5094872;28;20032;-72
2022/07/25 08:23:05;;;;;;;7.07;2.20;;;25.20;87.30;;;;;;5095534;28;20564;-71
2022/07/25 08:25:31;;;;;;;6.23;2.50;;;25.00;91.00;;;;;;5094474;28;20127;-72
2022/07/25 08:27:57;;;;;;;5.07;2.50;;;24.90;92.90;;;;;;5095188;28;20162;-72
2022/07/25 08:30:23;;;;;;;7.73;2.27;;;24.80;95.10;;;;;;5095168;28;20052;-72
2022/07/25 08:32:48;;;;;;;4.83;2.10;;;24.70;96.10;;;;;;5095302;28;20533;-72
2022/07/25 08:35:15;;;;;;;6.03;2.33;;;24.80;97.00;;;;;;5095277;28;20056;-72
2022/07/25 08:37:40;;;;;;;7.83;2.10;;;24.90;96.90;;;;;;5095221;28;20051;-73
2022/07/25 08:40:07;;;;;;;5.40;1.90;;;25.00;97.10;;;;;;5095125;28;20044;-75
2022/07/25 08:42:32;;;;;;;7.60;2.07;;;25.20;96.90;;;;;;5094261;28;20044;-76
2022/07/25 08:45:00;;;;;;;3.97;1.87;;;25.40;96.00;;;;;;5094847;28;20044;-75
2022/07/25 08:47:27;;;;;;;5.53;2.30;;;25.40;95.50;;;;;;5094850;28;20060;-75
2022/07/25 08:49:55;;;;;;;10.07;2.13;;;25.30;95.60;;;;;;5093983;28;20048;-75
2022/07/25 08:52:22;;;;;;;7.73;2.20;;;25.20;95.80;;;;;;5094505;28;20512;-75
2022/07/25 08:54:49;;;;;;;7.67;2.37;;;25.10;95.90;;;;;;5094985;28;20112;-75
2022/07/25 08:57:16;;;;;;;7.97;2.73;;;25.10;96.50;;;;;;5094835;28;20044;-76
2022/07/25 08:59:42;;;;;;;6.40;2.70;;;24.90;96.60;;;;;;5093872;28;20087;-76
2022/07/25 09:02:12;;;;;;;4.40;2.40;;;24.80;97.00;;;;;;5093866;28;20044;-73
2022/07/25 09:04:38;;;;;;;7.10;2.83;;;24.80;97.00;;;;;;5095284;28;20063;-75
2022/07/25 09:07:04;;;;;;;7.27;2.57;;;24.70;96.70;;;;;;5094007;28;20464;-75
2022/07/25 09:09:34;;;;;;;4.93;2.17;;;24.60;96.70;;;;;;5093934;28;20091;-76
2022/07/25 09:12:01;;;;;;;5.37;2.30;;;24.60;96.60;;;;;;5094147;28;20440;-76
2022/07/25 09:14:28;;;;;;;5.53;2.40;;;24.60;97.00;;;;;;5093582;28;20075;-76
2022/07/25 09:16:55;;;;;;;6.17;2.50;;;24.70;97.10;;;;;;5128375;27;20134;-76
2022/07/25 09:19:23;;;;;;;7.73;2.27;;;24.70;97.20;;;;;;5094409;28;20095;-78
2022/07/25 09:22:01;;;;;;;4.40;2.30;;;24.70;97.10;;;;;;5094243;28;20051;-76
2022/07/25 09:24:28;;;;;;;6.30;2.90;;;24.80;97.30;;;;;;5094391;28;20122;-75
2022/07/25 09:26:57;;;;;;;8.10;2.63;;;24.80;97.20;;;;;;5094396;28;20127;-74
2022/07/25 09:29:28;;;;;;;4.97;2.40;;;24.90;97.40;;;;;;5094470;28;20048;-72
2022/07/25 09:31:55;;;;;;;5.20;2.13;;;24.90;97.30;;;;;;5093070;28;20119;-72
2022/07/25 09:34:39;;;;;;;6.20;2.10;;;24.80;97.40;;;;;;5093292;28;20063;-72
2022/07/25 09:37:11;;;;;;;7.40;2.97;;;24.80;98.90;;;;;;5094197;28;20077;-73
2022/07/25 09:39:45;;;;;;;11.50;2.50;;;24.60;99.90;;;;;;5076271;28;20492;-71
2022/07/25 09:42:21;;;;;;;7.38;2.90;;;24.30;99.90;;;;;;5094111;28;20036;-74
2022/07/25 09:45:16;;;;;;;6.53;2.67;;;24.10;99.90;;;;;;5094701;28;20056;-73
2022/07/25 09:47:59;;;;;;;5.90;2.28;;;23.90;99.90;;;;;;5089780;28;20407;-75
2022/07/25 09:50:27;;;;;;;6.93;2.90;;;23.80;99.90;;;;;;5093562;28;20357;-73
2022/07/25 09:52:58;;;;;;;9.80;2.50;;;23.70;99.90;;;;;;5093821;28;20052;-71
2022/07/25 09:55:24;;;;;;;7.67;2.73;;;23.60;99.90;;;;;;5094742;28;20052;-72
2022/07/25 09:57:51;;;;;;;7.57;2.47;;;23.70;99.90;;;;;;5094443;28;20418;-72
2022/07/25 10:00:25;;;;;;;8.53;3.00;;;23.90;99.90;;;;;;5092657;28;20040;-71
2022/07/25 10:02:58;;;;;;;8.43;2.67;;;23.90;99.90;;;;;;5092844;28;20066;-72
2022/07/25 10:05:55;;;;;;;8.73;2.37;;;23.90;99.90;;;;;;5094310;28;20048;-72
2022/07/25 10:08:22;;;;;;;8.80;2.97;;;23.80;99.90;;;;;;5093800;28;20052;-72
2022/07/25 10:10:48;;;;;;;7.87;3.20;;;23.80;99.90;;;;;;5092538;28;20075;-71
2022/07/25 10:13:16;;;;;;;8.27;2.70;;;23.90;99.90;;;;;;5076324;28;20075;-72
2022/07/25 10:15:47;;;;;;;13.13;3.10;;;24.10;99.90;;;;;;5093641;28;20044;-72
2022/07/25 10:18:15;;;;;;;12.87;2.80;;;24.20;99.90;;;;;;5094219;28;20102;-72
2022/07/25 10:20:44;;;;;;;7.30;2.83;;;24.30;99.90;;;;;;5093270;28;20500;-72
2022/07/25 10:23:24;;;;;;;9.03;2.90;;;24.50;99.90;;;;;;5092419;28;20127;-72
2022/07/25 10:26:12;;;;;;;9.63;3.13;;;24.60;99.90;;;;;;5094080;28;20055;-72
2022/07/25 10:28:44;;;;;;;10.57;3.00;;;24.60;99.90;;;;;;5093487;28;20055;-72
2022/07/25 10:31:35;;;;;;;10.57;3.27;;;24.70;99.90;;;;;;5092153;28;20067;-72
2022/07/25 10:34:03;;;;;;;14.53;3.20;;;24.90;99.90;;;;;;5093855;28;20052;-72
2022/07/25 10:36:42;;;;;;;8.43;2.40;;;25.10;99.90;;;;;;5093490;28;20047;-72
2022/07/25 10:39:10;;;;;;;7.87;2.60;;;25.30;99.90;;;;;;5092761;28;20097;-72
2022/07/25 10:41:40;;;;;;;7.67;2.63;;;25.40;99.90;;;;;;5093405;28;20044;-72
2022/07/25 10:44:12;;;;;;;11.37;2.57;;;25.40;99.90;;;;;;5093424;28;20482;-72
2022/07/25 10:46:38;;;;;;;7.93;2.90;;;25.20;99.90;;;;;;5091821;28;20099;-72
2022/07/25 10:49:06;;;;;;;8.77;2.60;;;25.20;99.90;;;;;;5093408;28;20083;-71
2022/07/25 10:51:36;;;;;;;9.53;2.47;;;25.20;99.90;;;;;;5093198;28;20127;-71
2022/07/25 10:54:12;;;;;;;10.73;3.00;;;25.10;99.90;;;;;;5075477;28;20044;-71
2022/07/25 10:56:54;;;;;;;8.93;2.67;;;25.10;99.90;;;;;;5093282;28;20177;-71
2022/07/25 10:59:34;;;;;;;8.93;3.33;;;24.90;99.90;;;;;;5094110;28;20055;-71
2022/07/25 11:02:01;;;;;;;12.13;3.20;;;24.70;99.90;;;;;;5093271;28;20044;-71
2022/07/25 11:04:27;;;;;;;9.37;2.70;;;24.60;99.90;;;;;;5092041;28;20036;-70
2022/07/25 11:06:53;;;;;;;9.93;2.57;;;24.40;99.90;;;;;;5096984;28;20040;-71
2022/07/25 11:09:28;;;;;;;11.63;2.77;;;24.30;99.90;;;;;;5096334;28;20054;-72
2022/07/25 11:11:56;;;;;;;10.13;2.70;;;24.30;99.90;;;;;;5095731;28;20503;-71
2022/07/25 11:14:32;;;;;;;10.33;2.50;;;24.40;99.90;;;;;;5096885;28;20046;-73
2022/07/25 11:17:18;;;;;;;7.50;2.30;;;24.50;99.90;;;;;;5097654;28;20071;-70
2022/07/25 11:20:14;;;;;;;8.43;2.40;;;24.50;99.90;;;;;;5096824;28;20055;-70
2022/07/25 11:22:40;;;;;;;9.30;2.20;;;24.50;99.90;;;;;;5096692;28;20048;-71
2022/07/25 11:25:13;;;;;;;8.13;2.57;;;24.60;99.90;;;;;;5096284;28;20052;-71
2022/07/25 11:27:39;;;;;;;7.17;2.20;;;24.70;99.90;;;;;;5096555;28;20369;-72
2022/07/25 11:30:13;;;;;;;7.13;2.30;;;24.80;99.90;;;;;;5096643;28;20047;-71
2022/07/25 11:32:44;;;;;;;12.10;2.63;;;24.90;99.90;;;;;;5097003;28;20144;-71
2022/07/25 11:35:11;;;;;;;8.00;2.30;;;24.90;99.90;;;;;;5096332;28;20185;-71
2022/07/25 11:37:39;;;;;;;7.57;2.27;;;25.00;99.90;;;;;;5096451;28;20449;-71
2022/07/25 11:40:06;;;;;;;8.17;2.40;;;25.00;99.30;;;;;;5096339;28;20123;-70
2022/07/25 11:42:58;;;;;;;7.07;2.40;;;25.00;99.40;;;;;;5097072;28;20040;-71
2022/07/25 11:45:25;;;;;;;10.30;3.37;;;24.90;99.80;;;;;;5096250;28;20083;-71
2022/07/25 11:48:07;;;;;;;8.83;2.60;;;25.00;99.90;;;;;;5097382;28;20056;-73
2022/07/25 11:50:36;;;;;;;9.50;2.80;;;25.00;99.90;;;;;;5096165;28;20052;-73
2022/07/25 11:53:04;;;;;;;8.00;2.40;;;25.00;99.90;;;;;;5078027;28;20411;-75
2022/07/25 11:55:36;;;;;;;8.90;2.80;;;24.90;99.40;;;;;;5095766;28;20500;-74
2022/07/25 11:58:03;;;;;;;10.37;2.97;;;24.80;99.80;;;;;;5095086;28;20476;-75
2022/07/25 12:00:32;;;;;;;9.47;3.00;;;24.90;99.90;;;;;;5095803;28;20483;-75
2022/07/25 12:03:09;;;;;;;11.33;3.00;;;24.90;99.90;;;;;;5096003;28;20047;-76
2022/07/25 12:05:34;;;;;;;8.73;2.93;;;24.90;99.40;;;;;;5095845;28;20130;-75
2022/07/25 12:08:26;;;;;;;10.07;2.70;;;24.90;98.10;;;;;;5094304;28;20194;-75
2022/07/25 12:10:54;;;;;;;6.37;2.40;;;24.80;98.20;;;;;;5075788;28;20059;-75
2022/07/25 12:13:25;;;;;;;7.73;2.83;;;24.70;98.30;;;;;;5094450;28;20055;-76
2022/07/25 12:15:52;;;;;;;7.93;2.50;;;24.70;98.50;;;;;;5095334;28;20048;-77
2022/07/25 12:18:17;;;;;;;8.73;2.57;;;24.70;97.90;;;;;;5094560;28;20468;-77
2022/07/25 12:20:43;;;;;;;9.20;2.73;;;24.70;96.70;;;;;;5094140;28;20040;-78
2022/07/25 12:23:11;;;;;;;10.07;2.47;;;24.80;95.90;;;;;;5094347;28;20043;-77
2022/07/25 12:25:42;;;;;;;7.73;2.13;;;24.80;95.90;;;;;;5095076;28;20101;-78
2022/07/25 12:28:09;;;;;;;7.00;2.33;;;24.80;95.80;;;;;;5094257;28;20050;-76
2022/07/25 12:30:36;;;;;;;6.80;2.20;;;24.80;94.80;;;;;;5094416;28;20063;-76
2022/07/25 12:33:02;;;;;;;9.33;2.60;;;24.80;94.50;;;;;;5095100;28;20040;-77
2022/07/25 12:35:28;;;;;;;8.93;3.10;;;24.80;94.80;;;;;;5093685;28;20050;-77
2022/07/25 12:37:53;;;;;;;10.00;3.03;;;24.70;95.30;;;;;;5093993;28;20054;-77
2022/07/25 12:40:19;;;;;;;11.03;2.80;;;24.60;95.70;;;;;;5077667;28;20048;-79
2022/07/25 12:42:46;;;;;;;9.07;2.83;;;24.40;95.70;;;;;;5094026;28;20040;-77
2022/07/25 12:45:16;;;;;;;8.37;2.53;;;24.30;96.50;;;;;;5093988;28;20052;-77
2022/07/25 12:47:44;;;;;;;10.37;3.23;;;24.30;97.10;;;;;;5093555;28;20058;-77
2022/07/25 12:50:10;;;;;;;10.80;2.80;;;24.40;97.40;;;;;;5094031;28;20117;-76
2022/07/25 12:52:37;;;;;;;11.40;3.60;;;24.50;97.80;;;;;;5093705;28;20032;-77
2022/07/25 12:55:04;;;;;;;9.67;3.10;;;24.60;98.10;;;;;;5094906;28;20052;-76